createdAt,value
2018-08-03T00:01:40.738Z,91.22
2018-08-03T00:04:10.871Z,91.34
2018-08-03T00:06:40.855Z,90.82
2018-08-03T00:09:12.049Z,90.59
2018-08-03T00:11:42.066Z,90.45
2018-08-03T00:14:12.136Z,90.39
2018-08-03T00:16:42.097Z,90.22
2018-08-03T00:19:12.374Z,90.52
2018-08-03T00:21:42.295Z,91.13
2018-08-03T00:24:12.589Z,90.56
2018-08-03T00:26:43.248Z,91.01
2018-08-03T00:29:13.192Z,90.98
2018-08-03T00:31:43.753Z,91.51
2018-08-03T00:34:13.790Z,91.24
2018-08-03T00:36:43.507Z,91.40
2018-08-03T00:39:13.351Z,91.62
2018-08-03T00:41:43.391Z,90.70
2018-08-03T00:44:13.269Z,90.63
2018-08-03T00:46:43.113Z,90.56
2018-08-03T00:49:13.626Z,90.66
2018-08-03T00:51:43.320Z,90.56
2018-08-03T00:54:13.298Z,90.90
2018-08-03T00:56:43.043Z,90.86
2018-08-03T00:59:12.847Z,91.91
2018-08-03T01:01:43.194Z,91.39
2018-08-03T01:04:13.192Z,91.50
2018-08-03T01:06:43.088Z,91.60
2018-08-03T01:09:14.339Z,92.19
2018-08-03T01:11:44.204Z,91.81
2018-08-03T01:14:14.090Z,91.16
2018-08-03T01:16:44.350Z,91.91
2018-08-03T01:19:15.530Z,92.03
2018-08-03T01:21:46.687Z,91.42
2018-08-03T01:24:17.143Z,91.42
2018-08-03T01:26:46.769Z,91.68
2018-08-03T01:29:17.316Z,92.33
2018-08-03T01:31:47.070Z,91.65
2018-08-03T01:34:16.971Z,92.04
2018-08-03T01:36:46.645Z,91.78
2018-08-03T01:39:16.605Z,92.08
2018-08-03T01:41:46.410Z,92.49
2018-08-03T01:44:16.768Z,92.69
2018-08-03T01:46:47.136Z,92.06
2018-08-03T01:49:17.067Z,92.11
2018-08-03T01:51:46.972Z,92.22
2018-08-03T01:54:16.770Z,92.40
2018-08-03T01:56:46.472Z,91.60
2018-08-03T01:59:16.231Z,91.44
2018-08-03T02:01:46.017Z,91.33
2018-08-03T02:04:16.509Z,91.97
2018-08-03T02:06:46.377Z,91.97
2018-08-03T02:09:16.270Z,92.17
2018-08-03T02:11:46.184Z,92.37
2018-08-03T02:14:16.313Z,91.63
2018-08-03T02:16:46.175Z,91.86
2018-08-03T02:19:16.034Z,92.45
2018-08-03T02:21:46.335Z,92.37
2018-08-03T02:24:16.832Z,92.44
2018-08-03T02:26:47.563Z,92.59
2018-08-03T02:29:17.470Z,92.31
2018-08-03T02:31:47.407Z,92.04
2018-08-03T02:34:17.364Z,92.28
2018-08-03T02:36:48.405Z,92.45
2018-08-03T03:16:31.553Z,92.72
2018-08-03T03:19:02.255Z,92.34
2018-08-03T03:21:32.147Z,93.03
2018-08-03T03:24:01.983Z,91.96
2018-08-03T03:26:31.793Z,91.75
2018-08-03T03:29:01.481Z,92.47
2018-08-03T03:31:31.464Z,92.20
2018-08-03T03:34:01.265Z,92.24
2018-08-03T03:36:32.392Z,92.77
2018-08-03T03:39:02.264Z,92.44
2018-08-03T03:41:32.624Z,92.71
2018-08-03T03:44:02.459Z,91.60
2018-08-03T03:46:32.412Z,92.06
2018-08-03T03:49:02.432Z,91.93
2018-08-03T04:09:51.713Z,92.71
2018-08-03T04:12:21.905Z,93.17
2018-08-03T04:14:52.473Z,93.37
2018-08-03T04:17:22.884Z,92.75
2018-08-03T04:19:52.913Z,93.27
2018-08-03T04:22:23.893Z,93.09
2018-08-03T04:24:53.811Z,92.47
2018-08-03T04:27:23.906Z,92.51
2018-08-03T04:29:53.793Z,92.88
2018-08-03T04:32:23.753Z,92.20
2018-08-03T04:34:54.307Z,92.55
2018-08-03T04:37:24.501Z,91.95
2018-08-03T04:40:02.888Z,92.84
2018-08-03T04:42:39.807Z,92.91
2018-08-03T04:45:22.786Z,92.70
2018-08-03T04:48:05.030Z,92.37
2018-08-03T04:50:47.946Z,91.65
2018-08-03T04:53:19.046Z,91.50
2018-08-03T04:55:51.107Z,91.77
2018-08-03T04:58:21.667Z,90.80
2018-08-03T05:00:52.047Z,91.31
2018-08-03T05:03:24.986Z,90.73
2018-08-03T05:05:55.332Z,91.28
2018-08-03T05:08:27.088Z,91.27
2018-08-03T05:10:57.908Z,91.17
2018-08-03T05:13:27.975Z,88.91
2018-08-03T05:15:57.868Z,89.06
2018-08-03T05:18:28.367Z,88.24
2018-08-03T05:20:59.348Z,87.42
2018-08-03T05:23:29.329Z,84.87
2018-08-03T05:25:59.650Z,81.82
2018-08-03T05:28:29.854Z,81.44
2018-08-03T05:30:59.696Z,82.37
2018-08-03T05:33:30.597Z,82.19
2018-08-03T05:36:01.891Z,81.25
2018-08-03T05:38:32.009Z,79.76
2018-08-03T05:41:02.648Z,78.55
2018-08-03T05:43:32.610Z,76.48
2018-08-03T05:46:02.517Z,75.56
2018-08-03T05:48:33.777Z,75.88
2018-08-03T05:51:04.169Z,75.19
2018-08-03T05:53:35.749Z,73.33
2018-08-03T05:59:25.452Z,71.38
2018-08-03T06:01:59.550Z,73.89
2018-08-03T06:04:35.740Z,72.94
2018-08-03T06:07:14.648Z,72.20
2018-08-03T06:09:49.212Z,71.32
2018-08-03T06:12:19.269Z,71.10
2018-08-03T06:14:52.383Z,72.80
2018-08-03T06:17:22.748Z,69.29
2018-08-03T06:19:53.068Z,70.84
2018-08-03T06:22:33.071Z,70.41
2018-08-03T06:25:09.609Z,70.74
2018-08-03T06:27:47.489Z,68.88
2018-08-03T06:30:23.969Z,67.32
2018-08-03T06:32:53.868Z,68.88
2018-08-03T06:35:23.708Z,68.43
2018-08-03T06:38:04.719Z,66.29
2018-08-03T06:59:22.697Z,63.68
2018-08-03T07:04:56.750Z,66.17
2018-08-03T07:07:26.711Z,60.54
2018-08-03T07:09:56.757Z,61.88
2018-08-03T07:12:29.110Z,58.93
2018-08-03T07:15:05.998Z,59.35
2018-08-03T07:17:36.073Z,55.84
2018-08-03T07:20:10.155Z,61.44
2018-08-03T07:22:40.312Z,54.43
2018-08-03T07:25:10.513Z,57.24
2018-08-03T07:27:40.455Z,57.09
2018-08-03T07:30:10.353Z,57.20
2018-08-03T07:32:40.235Z,60.48
2018-08-03T07:35:10.932Z,53.89
2018-08-03T07:37:41.941Z,57.71
2018-08-03T07:40:12.014Z,51.39
2018-08-03T07:42:42.773Z,55.45
2018-08-03T07:45:12.872Z,51.97
2018-08-03T07:47:43.036Z,56.37
2018-08-03T07:50:14.313Z,52.16
2018-08-03T07:52:44.973Z,52.83
2018-08-03T07:55:15.796Z,50.48
2018-08-03T07:57:46.432Z,51.93
2018-08-03T08:00:16.332Z,52.87
2018-08-03T08:02:46.721Z,51.96
2018-08-03T08:05:17.593Z,54.02
2018-08-03T08:07:47.614Z,49.16
2018-08-03T08:10:17.534Z,49.01
2018-08-03T08:12:51.850Z,50.33
2018-08-03T08:15:22.121Z,51.09
2018-08-03T08:17:52.711Z,48.47
2018-08-03T08:20:39.938Z,48.30
2018-08-03T08:23:09.800Z,51.53
2018-08-03T08:25:40.645Z,50.79
2018-08-03T08:28:11.190Z,53.23
2018-08-03T08:30:41.872Z,49.29
2018-08-03T08:33:12.609Z,52.03
2018-08-03T08:38:44.412Z,53.92
2018-08-03T08:47:34.093Z,54.10
2018-08-03T08:50:22.433Z,51.21
2018-08-03T08:53:10.208Z,50.57
2018-08-03T08:55:41.134Z,52.33
2018-08-03T08:58:14.260Z,51.23
2018-08-03T09:07:10.003Z,49.67
2018-08-03T09:09:41.614Z,48.95
2018-08-03T09:12:11.782Z,50.33
2018-08-03T09:14:41.614Z,47.96
2018-08-03T09:17:12.255Z,56.31
2018-08-03T09:19:45.195Z,51.76
2018-08-03T09:22:15.876Z,50.02
2018-08-03T09:24:46.852Z,48.39
2018-08-03T09:27:17.815Z,48.96
2018-08-03T09:29:48.676Z,47.81
2018-08-03T09:35:03.480Z,50.18
2018-08-03T09:37:34.079Z,48.64
2018-08-03T09:40:04.203Z,49.54
2018-08-03T09:42:34.959Z,47.37
2018-08-03T09:45:05.886Z,47.09
2018-08-03T09:47:36.779Z,47.92
2018-08-03T09:50:08.420Z,47.58
2018-08-03T09:52:38.281Z,47.05
2018-08-03T09:55:14.905Z,47.64
2018-08-03T09:57:45.379Z,51.48
2018-08-03T10:00:17.799Z,48.64
2018-08-03T10:02:48.449Z,48.62
2018-08-03T10:05:26.859Z,50.19
2018-08-03T10:08:01.921Z,47.06
2018-08-03T10:11:03.120Z,48.22
2018-08-03T10:13:39.279Z,49.18
2018-08-03T10:16:11.068Z,46.18
2018-08-03T10:18:44.192Z,48.05
2018-08-03T10:21:13.926Z,46.99
2018-08-03T10:23:44.187Z,49.61
2018-08-03T10:26:14.313Z,47.36
2018-08-03T10:28:44.180Z,48.10
2018-08-03T10:31:15.717Z,47.74
2018-08-03T10:33:46.243Z,48.74
2018-08-03T10:36:15.772Z,47.17
2018-08-03T10:38:45.526Z,49.87
2018-08-03T10:41:15.604Z,46.11
2018-08-03T10:43:45.587Z,46.95
2018-08-03T10:46:15.435Z,45.34
2018-08-03T10:48:45.594Z,46.08
2018-08-03T10:51:15.757Z,45.50
2018-08-03T10:53:46.125Z,45.53
2018-08-03T10:56:16.054Z,47.63
2018-08-03T10:58:46.362Z,46.47
2018-08-03T11:01:16.277Z,47.15
2018-08-03T11:03:46.271Z,45.64
2018-08-03T11:06:16.377Z,45.19
2018-08-03T11:08:46.412Z,45.67
2018-08-03T11:11:17.012Z,46.47
2018-08-03T11:13:47.098Z,46.06
2018-08-03T11:16:16.992Z,46.15
2018-08-03T11:18:46.813Z,44.37
2018-08-03T11:21:16.663Z,45.49
2018-08-03T11:23:46.603Z,46.55
2018-08-03T11:26:16.716Z,46.86
2018-08-03T11:28:47.066Z,42.91
2018-08-03T11:31:16.945Z,45.12
2018-08-03T11:33:47.571Z,43.50
2018-08-03T11:36:17.584Z,44.47
2018-08-03T11:38:47.312Z,41.99
2018-08-03T11:41:17.180Z,41.98
2018-08-03T11:43:47.655Z,44.41
2018-08-03T11:46:17.514Z,41.91
2018-08-03T11:48:47.502Z,43.85
2018-08-03T11:51:17.385Z,42.42
2018-08-03T11:53:47.158Z,44.15
2018-08-03T11:56:17.023Z,43.04
2018-08-03T11:58:46.904Z,43.95
2018-08-03T12:01:16.946Z,43.96
2018-08-03T12:03:47.219Z,42.95
2018-08-03T12:06:17.946Z,44.86
2018-08-03T12:08:47.749Z,43.50
2018-08-03T12:11:17.623Z,42.59
2018-08-03T12:13:48.601Z,45.76
2018-08-03T12:16:20.361Z,46.42
2018-08-03T12:18:50.273Z,43.16
2018-08-03T12:21:20.141Z,45.30
2018-08-03T12:23:51.039Z,42.96
2018-08-03T12:26:20.904Z,43.60
2018-08-03T12:28:50.962Z,45.26
2018-08-03T12:31:21.642Z,41.79
2018-08-03T12:33:51.713Z,42.31
2018-08-03T12:36:21.633Z,45.21
2018-08-03T12:38:52.663Z,46.50
2018-08-03T12:41:22.504Z,44.30
2018-08-03T12:43:52.463Z,43.50
2018-08-03T12:46:23.165Z,47.84
2018-08-03T12:48:53.658Z,48.95
2018-08-03T13:03:07.754Z,87.04
2018-08-03T13:05:41.531Z,89.70
2018-08-03T13:08:15.230Z,88.44
2018-08-03T13:10:52.806Z,87.00
2018-08-03T13:13:23.980Z,86.55
2018-08-03T13:15:56.991Z,87.71
2018-08-03T13:18:30.196Z,87.94
2018-08-03T13:21:14.172Z,85.56
2018-08-03T13:23:58.873Z,84.81
2018-08-03T13:26:29.777Z,82.73
2018-08-03T13:29:01.935Z,85.82
2018-08-03T13:31:34.374Z,86.18
2018-08-03T13:34:07.218Z,85.21
2018-08-03T13:36:41.316Z,82.49
2018-08-03T13:39:13.409Z,83.48
2018-08-03T13:41:50.811Z,84.16
2018-08-03T13:44:29.227Z,85.77
2018-08-03T13:47:00.566Z,85.51
2018-08-03T13:49:34.958Z,85.12
2018-08-03T13:52:06.196Z,84.69
2018-08-03T13:54:45.784Z,86.48
2018-08-03T13:57:23.335Z,83.72
2018-08-03T14:00:10.175Z,84.27
2018-08-03T14:02:57.001Z,80.58
2018-08-03T14:08:19.953Z,78.74
2018-08-03T14:10:50.383Z,77.92
2018-08-03T14:13:40.141Z,72.67
2018-08-03T14:16:13.646Z,69.08
2018-08-03T14:21:38.846Z,66.27
2018-08-03T14:24:10.246Z,64.85
2018-08-03T14:26:41.819Z,68.13
2018-08-03T14:29:12.643Z,64.77
2018-08-03T14:31:49.652Z,60.23
2018-08-03T14:34:20.889Z,62.16
2018-08-03T14:36:52.157Z,64.80
2018-08-03T14:39:23.082Z,69.50
2018-08-03T14:41:53.870Z,66.54
2018-08-03T14:44:24.131Z,65.73
2018-08-03T14:49:48.929Z,64.94
2018-08-03T14:52:22.909Z,64.09
2018-08-03T14:54:53.368Z,63.81
2018-08-03T14:57:23.676Z,66.41
2018-08-03T14:59:54.536Z,69.80
2018-08-03T15:02:24.928Z,70.95
2018-08-03T15:04:56.129Z,72.42
2018-08-03T15:07:34.938Z,69.15
2018-08-03T15:10:14.970Z,68.32
2018-08-03T15:12:47.689Z,70.32
2018-08-03T15:15:21.949Z,71.48
2018-08-03T15:17:57.388Z,69.29
2018-08-03T15:20:33.728Z,69.12
2018-08-03T15:23:06.373Z,69.81
2018-08-03T15:26:05.278Z,71.90
2018-08-03T15:28:37.807Z,74.18
2018-08-03T15:31:08.359Z,74.93
2018-08-03T15:33:38.799Z,76.16
2018-08-03T15:36:09.360Z,76.17
2018-08-03T15:40:58.364Z,75.87
2018-08-03T15:46:21.698Z,77.67
2018-08-03T15:48:57.258Z,77.30
2018-08-03T15:51:43.018Z,77.66
2018-08-03T15:54:13.578Z,79.35
2018-08-03T15:56:43.739Z,79.19
2018-08-03T15:59:14.218Z,78.84
2018-08-03T16:01:44.666Z,78.28
2018-08-03T16:04:17.897Z,75.87
2018-08-03T16:06:48.692Z,76.90
2018-08-03T16:09:19.911Z,76.77
2018-08-03T16:11:50.917Z,78.12
2018-08-03T16:14:34.991Z,79.39
2018-08-03T16:17:05.513Z,79.25
2018-08-03T16:19:36.730Z,78.08
2018-08-03T16:24:53.651Z,77.96
2018-08-03T16:27:24.011Z,75.72
2018-08-03T16:29:54.710Z,77.29
2018-08-03T16:32:26.739Z,75.42
2018-08-03T16:35:03.170Z,75.25
2018-08-03T16:37:35.012Z,74.97
2018-08-03T16:40:05.672Z,74.84
2018-08-03T16:42:36.014Z,71.15
2018-08-03T16:45:07.013Z,73.45
2018-08-03T16:47:44.629Z,71.01
2018-08-03T16:50:19.949Z,71.01
2018-08-03T16:52:50.929Z,70.69
2018-08-03T16:55:29.609Z,69.66
2018-08-03T16:58:07.069Z,72.12
2018-08-03T17:00:37.516Z,70.77
2018-08-03T17:03:08.673Z,72.41
2018-08-03T17:05:40.571Z,72.27
2018-08-03T17:08:15.809Z,72.54
2018-08-03T17:10:46.871Z,72.70
2018-08-03T17:13:19.736Z,73.85
2018-08-03T17:15:53.950Z,77.59
2018-08-03T17:18:24.170Z,75.07
2018-08-03T17:20:54.517Z,76.45
2018-08-03T17:23:25.470Z,77.81
2018-08-03T17:25:57.790Z,77.94
2018-08-03T17:28:29.065Z,79.18
2018-08-03T17:30:59.353Z,81.11
2018-08-03T17:33:29.803Z,81.44
2018-08-03T17:36:02.027Z,81.64
2018-08-03T17:38:33.425Z,81.70
2018-08-03T17:41:04.209Z,82.26
2018-08-03T17:43:36.207Z,81.26
2018-08-03T17:46:07.205Z,82.08
2018-08-03T17:48:37.486Z,82.81
2018-08-03T17:51:08.067Z,82.33
2018-08-03T17:53:38.668Z,82.96
2018-08-03T17:56:09.052Z,83.01
2018-08-03T17:58:39.766Z,83.84
2018-08-03T18:01:09.950Z,85.33
2018-08-03T18:03:40.070Z,84.13
2018-08-03T18:06:10.413Z,85.29
2018-08-03T18:08:40.933Z,85.19
2018-08-03T18:11:11.486Z,86.25
2018-08-03T18:13:41.984Z,86.99
2018-08-03T18:16:12.647Z,86.35
2018-08-03T18:18:42.915Z,85.30
2018-08-03T18:21:13.068Z,86.14
2018-08-03T18:23:43.207Z,86.41
2018-08-03T18:26:13.419Z,86.80
2018-08-03T18:28:43.854Z,87.05
2018-08-03T18:31:14.169Z,87.86
2018-08-03T18:33:44.628Z,87.46
2018-08-03T18:36:15.466Z,87.89
2018-08-03T18:38:47.000Z,88.20
2018-08-03T18:41:17.468Z,87.82
2018-08-03T18:43:47.566Z,87.22
2018-08-03T18:46:18.219Z,87.51
2018-08-03T18:48:49.646Z,88.94
2018-08-03T18:51:20.127Z,88.53
2018-08-03T18:53:50.406Z,88.46
2018-08-03T18:56:21.186Z,88.63
2018-08-03T18:58:51.545Z,88.11
2018-08-03T19:01:21.947Z,88.13
2018-08-03T19:03:52.706Z,89.82
2018-08-03T19:06:23.547Z,89.84
2018-08-03T19:08:54.044Z,89.66
2018-08-03T19:11:24.511Z,89.76
2018-08-03T19:13:54.687Z,90.16
2018-08-03T19:16:25.099Z,89.15
2018-08-03T19:18:55.267Z,90.11
2018-08-03T19:21:27.546Z,90.05
2018-08-03T19:23:57.929Z,89.56
2018-08-03T19:26:28.189Z,90.26
2018-08-03T19:28:58.513Z,90.37
2018-08-03T19:31:28.847Z,90.78
2018-08-03T19:33:59.054Z,91.63
2018-08-03T19:36:29.505Z,91.94
2018-08-03T19:39:00.828Z,90.75
2018-08-03T19:41:31.012Z,91.46
2018-08-03T19:44:01.285Z,91.11
2018-08-03T19:46:31.424Z,91.21
2018-08-03T19:49:01.508Z,91.04
2018-08-03T19:51:31.886Z,90.53
2018-08-03T19:54:02.003Z,91.44
2018-08-03T19:56:32.294Z,91.63
2018-08-03T19:59:02.663Z,90.94
2018-08-03T20:01:32.896Z,89.98
2018-08-03T20:04:02.916Z,89.81
2018-08-03T20:06:33.896Z,90.45
2018-08-03T20:09:05.697Z,90.58
2018-08-03T20:11:35.778Z,91.77
2018-08-03T20:14:06.058Z,90.58
2018-08-03T20:16:36.368Z,90.21
2018-08-03T20:19:06.537Z,89.77
2018-08-03T20:21:36.897Z,90.03
2018-08-03T20:24:07.385Z,89.75
2018-08-03T20:26:37.887Z,89.96
2018-08-03T20:29:07.917Z,90.80
2018-08-03T20:31:37.955Z,90.41
2018-08-03T20:34:08.174Z,90.30
2018-08-03T20:36:38.194Z,90.55
2018-08-03T20:39:10.472Z,90.83
2018-08-03T20:41:40.754Z,90.83
2018-08-03T20:44:11.194Z,91.37
2018-08-03T20:46:41.621Z,91.64
2018-08-03T20:49:11.775Z,91.61
2018-08-03T20:51:43.416Z,90.49
2018-08-03T20:54:13.476Z,90.22
2018-08-03T20:56:43.903Z,90.20
2018-08-03T20:59:13.925Z,90.27
2018-08-03T21:01:44.086Z,90.82
2018-08-03T21:04:14.865Z,91.41
2018-08-03T21:06:45.676Z,91.40
2018-08-03T21:09:16.339Z,91.02
2018-08-03T21:11:46.859Z,91.25
2018-08-03T21:14:16.981Z,91.24
2018-08-03T21:16:47.153Z,91.41
2018-08-03T21:19:17.275Z,90.97
2018-08-03T21:21:47.521Z,90.87
2018-08-03T21:24:17.395Z,91.22
2018-08-03T21:26:47.697Z,91.46
2018-08-03T21:29:17.782Z,91.22
2018-08-03T21:31:47.871Z,91.37
2018-08-03T21:34:18.067Z,91.38
2018-08-03T21:36:48.342Z,91.89
2018-08-03T21:39:19.082Z,91.89
2018-08-03T21:41:49.461Z,91.54
2018-08-03T21:44:19.511Z,91.96
2018-08-03T21:46:49.656Z,91.33
2018-08-03T21:49:20.205Z,91.36
2018-08-03T21:51:50.437Z,91.64
2018-08-03T21:54:21.788Z,92.33
2018-08-03T21:56:51.883Z,91.49
2018-08-03T21:59:22.019Z,91.83
2018-08-03T22:01:52.420Z,91.85
2018-08-03T22:04:22.499Z,91.98
2018-08-03T22:06:52.763Z,91.04
2018-08-03T22:09:23.288Z,91.84
2018-08-03T22:11:53.678Z,91.50
2018-08-03T22:14:23.722Z,91.94
2018-08-03T22:16:53.828Z,92.45
2018-08-03T22:19:23.878Z,92.11
2018-08-03T22:21:54.276Z,92.39
2018-08-03T22:24:24.791Z,92.84
2018-08-03T22:26:55.121Z,92.69
2018-08-03T22:29:25.625Z,91.99
2018-08-03T22:31:55.938Z,93.11
2018-08-03T22:34:25.957Z,93.17
2018-08-03T22:36:56.447Z,93.28
2018-08-03T22:39:26.620Z,92.73
2018-08-03T22:41:57.555Z,92.87
2018-08-03T22:44:28.245Z,92.39
2018-08-03T22:46:58.558Z,93.07
2018-08-03T22:49:28.973Z,92.61
2018-08-03T22:51:59.135Z,93.07
2018-08-03T22:54:29.542Z,92.22
2018-08-03T22:56:59.836Z,92.42
2018-08-03T22:59:30.026Z,92.22
2018-08-03T23:02:00.136Z,92.23
2018-08-03T23:04:31.063Z,92.42
2018-08-03T23:07:01.259Z,92.68
2018-08-03T23:09:31.383Z,93.17
2018-08-03T23:12:01.633Z,92.43
2018-08-03T23:14:31.876Z,92.51
2018-08-03T23:17:01.937Z,92.30
2018-08-03T23:19:31.975Z,93.09
2018-08-03T23:22:03.089Z,92.04
2018-08-03T23:24:34.041Z,92.37
2018-08-03T23:27:04.339Z,93.09
2018-08-03T23:29:34.540Z,92.54
2018-08-03T23:32:04.697Z,93.15
2018-08-03T23:34:34.899Z,92.99
2018-08-03T23:37:06.636Z,92.13
2018-08-03T23:39:36.862Z,92.54
2018-08-03T23:42:07.083Z,93.10
2018-08-03T23:44:37.220Z,92.31
2018-08-03T23:47:08.440Z,92.94
2018-08-03T23:49:38.636Z,92.47
2018-08-03T23:52:08.839Z,91.62
2018-08-03T23:54:39.155Z,92.39
2018-08-03T23:57:09.490Z,92.48
2018-08-03T23:59:39.616Z,91.53
